Time;durP1;ratioP1;P1;durP2;ratioP2;P2;SDS_P1;SDS_P2;PMS_P1;PMS_P2;Temp;Humidity;BMP_temperature;BMP_pressure;BME280_temperature;BME280_humidity;BME280_pressure;Samples;Min_cycle;Max_cycle;Signal;HPM_P1;HPM_P2
2020/12/18 00:01:43;;;;;;;20.50;19.00;;;4.80;99.90;;;;;;5123065;27;20483;-74
2020/12/18 00:04:10;;;;;;;22.03;19.77;;;4.70;99.90;;;;;;5118846;27;20455;-74
2020/12/18 00:06:36;;;;;;;21.80;19.93;;;4.80;99.90;;;;;;5117629;27;20461;-74
2020/12/18 00:09:04;;;;;;;23.87;21.40;;;4.80;99.90;;;;;;5120911;27;20465;-74
2020/12/18 00:11:31;;;;;;;29.40;21.80;;;4.70;99.90;;;;;;5123931;27;20543;-74
2020/12/18 00:13:59;;;;;;;30.87;22.70;;;4.70;99.90;;;;;;5117281;27;20463;-74
2020/12/18 00:16:26;;;;;;;27.03;22.67;;;4.60;99.90;;;;;;5116144;27;20464;-74
2020/12/18 00:18:53;;;;;;;27.50;22.47;;;4.50;99.90;;;;;;5117814;27;20774;-74
2020/12/18 00:21:21;;;;;;;28.67;21.60;;;4.50;99.90;;;;;;5120001;27;20460;-75
2020/12/18 00:23:47;;;;;;;27.27;21.67;;;4.50;99.90;;;;;;5109691;27;20533;-74
2020/12/18 00:26:16;;;;;;;33.37;20.93;;;4.50;99.90;;;;;;5113516;27;20465;-75
2020/12/18 00:28:43;;;;;;;23.70;20.37;;;4.50;99.90;;;;;;5122493;27;20464;-74
2020/12/18 00:31:10;;;;;;;21.93;19.83;;;4.50;99.90;;;;;;5116439;27;20455;-74
2020/12/18 00:33:37;;;;;;;22.07;19.93;;;4.50;99.90;;;;;;5111460;27;20461;-74
2020/12/18 00:36:04;;;;;;;22.37;20.43;;;4.60;99.90;;;;;;5114364;27;20463;-75
2020/12/18 00:38:31;;;;;;;21.80;19.70;;;4.60;99.90;;;;;;5113311;27;20499;-75
2020/12/18 00:40:58;;;;;;;22.43;20.57;;;4.60;99.90;;;;;;5111429;27;20453;-74
2020/12/18 00:43:24;;;;;;;22.70;20.43;;;4.50;99.90;;;;;;5113583;27;20495;-74
2020/12/18 00:45:54;;;;;;;21.57;19.53;;;4.40;99.90;;;;;;5112058;27;20883;-74
2020/12/18 00:48:20;;;;;;;23.60;21.10;;;4.40;99.90;;;;;;5112147;27;20472;-74
2020/12/18 00:50:47;;;;;;;22.77;21.03;;;4.30;99.90;;;;;;5114023;27;21092;-74
2020/12/18 00:53:13;;;;;;;23.30;20.80;;;4.30;99.90;;;;;;5110561;27;20840;-74
2020/12/18 00:55:41;;;;;;;23.30;20.80;;;4.30;99.90;;;;;;5111945;27;20494;-74
2020/12/18 00:58:07;;;;;;;22.10;20.40;;;4.30;99.90;;;;;;5113157;27;20464;-74
2020/12/18 01:00:33;;;;;;;21.03;19.43;;;4.40;99.90;;;;;;5118701;27;21041;-74
2020/12/18 01:03:01;;;;;;;24.47;22.50;;;4.40;99.90;;;;;;5117562;27;20499;-74
2020/12/18 01:05:27;;;;;;;22.47;20.73;;;4.30;99.90;;;;;;5114565;27;20452;-74
2020/12/18 01:07:54;;;;;;;22.63;20.93;;;4.30;99.90;;;;;;5116100;27;20471;-75
2020/12/18 01:10:20;;;;;;;23.30;21.00;;;4.30;99.90;;;;;;5117902;27;20527;-74
2020/12/18 01:12:48;;;;;;;22.10;20.20;;;4.30;99.90;;;;;;5115487;27;20460;-74
2020/12/18 01:15:14;;;;;;;23.00;21.00;;;4.30;99.90;;;;;;5114207;27;20456;-74
2020/12/18 01:17:41;;;;;;;23.60;21.50;;;4.30;99.90;;;;;;5115924;27;20514;-74
2020/12/18 01:20:08;;;;;;;23.33;20.80;;;4.40;99.90;;;;;;5117949;27;20449;-74
2020/12/18 01:22:34;;;;;;;22.03;20.40;;;4.40;99.90;;;;;;5119254;27;20515;-74
2020/12/18 01:25:01;;;;;;;23.20;21.23;;;4.40;99.90;;;;;;5117845;27;20825;-74
2020/12/18 01:27:28;;;;;;;23.10;20.73;;;4.40;99.90;;;;;;5114537;27;20469;-74
2020/12/18 01:29:55;;;;;;;21.07;19.33;;;4.40;99.90;;;;;;5115291;27;20464;-74
2020/12/18 01:32:22;;;;;;;20.93;19.33;;;4.40;99.90;;;;;;5114668;27;20492;-74
2020/12/18 01:34:48;;;;;;;23.23;21.10;;;4.30;99.90;;;;;;5122038;28;20465;-74
2020/12/18 01:37:17;;;;;;;21.77;20.07;;;4.30;99.90;;;;;;5116152;27;20872;-74
2020/12/18 01:39:43;;;;;;;23.97;21.17;;;4.20;99.90;;;;;;5116993;27;20468;-74
2020/12/18 01:42:09;;;;;;;24.90;22.20;;;4.10;99.90;;;;;;5116851;28;20492;-74
2020/12/18 01:44:37;;;;;;;23.40;21.33;;;4.10;99.90;;;;;;5118334;28;20468;-74
2020/12/18 01:47:03;;;;;;;31.17;20.40;;;4.00;99.90;;;;;;5115009;28;20472;-74
2020/12/18 01:49:30;;;;;;;24.43;22.20;;;4.00;99.90;;;;;;5113644;28;20483;-74
2020/12/18 01:51:57;;;;;;;23.70;21.00;;;4.00;99.90;;;;;;5113918;28;20618;-74
2020/12/18 01:54:25;;;;;;;23.03;20.90;;;4.20;99.90;;;;;;5117369;28;20464;-74
2020/12/18 01:56:53;;;;;;;32.93;21.10;;;4.10;99.90;;;;;;5115129;28;20559;-74
2020/12/18 01:59:20;;;;;;;32.83;20.97;;;4.20;99.90;;;;;;5111777;28;20473;-74
2020/12/18 02:01:46;;;;;;;25.17;20.63;;;4.20;99.90;;;;;;5114311;28;20877;-74
2020/12/18 02:04:13;;;;;;;30.70;20.90;;;4.30;99.90;;;;;;5120128;27;20474;-74
2020/12/18 02:06:43;;;;;;;36.67;21.20;;;4.30;99.90;;;;;;5119332;27;20459;-74
2020/12/18 02:09:09;;;;;;;31.67;21.07;;;4.20;99.90;;;;;;5119335;27;20934;-74
2020/12/18 02:11:37;;;;;;;33.73;21.40;;;4.20;99.90;;;;;;5118043;27;20568;-74
2020/12/18 02:14:03;;;;;;;36.20;21.90;;;4.10;99.90;;;;;;5118056;27;20457;-74
2020/12/18 02:16:32;;;;;;;35.20;20.93;;;4.20;99.90;;;;;;5118948;27;20492;-74
2020/12/18 02:18:59;;;;;;;35.13;20.97;;;4.20;99.90;;;;;;5122712;27;20560;-74
2020/12/18 02:21:26;;;;;;;23.60;20.67;;;4.20;99.90;;;;;;5118061;27;20459;-74
2020/12/18 02:23:53;;;;;;;32.63;21.10;;;4.20;99.90;;;;;;5119196;27;20493;-74
2020/12/18 02:26:20;;;;;;;23.40;21.40;;;4.20;99.90;;;;;;5116367;27;21160;-74
2020/12/18 02:28:46;;;;;;;22.77;20.47;;;4.20;99.90;;;;;;5121182;27;20536;-74
2020/12/18 02:31:15;;;;;;;23.37;20.97;;;4.10;99.90;;;;;;5120956;27;21235;-74
2020/12/18 02:33:42;;;;;;;25.30;20.20;;;4.10;99.90;;;;;;5119857;27;20495;-74
2020/12/18 02:36:09;;;;;;;36.53;21.20;;;4.10;99.90;;;;;;5121163;27;20530;-74
2020/12/18 02:38:36;;;;;;;23.27;21.00;;;4.10;99.90;;;;;;5121821;27;20536;-74
2020/12/18 02:41:03;;;;;;;24.57;21.30;;;4.10;99.90;;;;;;5119730;27;20799;-74
2020/12/18 02:43:30;;;;;;;29.03;21.33;;;4.10;99.90;;;;;;5116481;27;20486;-74
2020/12/18 02:45:57;;;;;;;23.57;21.17;;;4.10;99.90;;;;;;5122374;27;20456;-74
2020/12/18 02:48:23;;;;;;;23.67;21.60;;;4.10;99.90;;;;;;5116801;27;20459;-74
2020/12/18 02:50:50;;;;;;;27.27;22.13;;;4.10;99.90;;;;;;5116501;27;20858;-74
2020/12/18 02:53:18;;;;;;;25.33;22.63;;;4.10;99.90;;;;;;5116069;27;20467;-74
2020/12/18 02:55:45;;;;;;;25.13;20.90;;;4.00;99.90;;;;;;5119788;27;20456;-74
2020/12/18 02:58:13;;;;;;;28.23;22.57;;;4.00;99.90;;;;;;5118189;27;20453;-74
2020/12/18 03:00:41;;;;;;;26.30;21.80;;;4.00;99.90;;;;;;5118487;27;20464;-74
2020/12/18 03:03:08;;;;;;;28.97;22.30;;;3.90;99.90;;;;;;5117845;27;20499;-74
2020/12/18 03:05:35;;;;;;;24.60;22.07;;;3.90;99.90;;;;;;5117380;27;21228;-74
2020/12/18 03:08:02;;;;;;;27.93;21.37;;;3.90;99.90;;;;;;5118433;27;20521;-74
2020/12/18 03:10:28;;;;;;;27.10;23.07;;;3.80;99.90;;;;;;5125007;27;20456;-74
2020/12/18 03:12:55;;;;;;;41.33;22.13;;;3.80;99.90;;;;;;5120938;27;20460;-74
2020/12/18 03:15:21;;;;;;;38.83;21.83;;;3.80;99.90;;;;;;5113689;27;20453;-74
2020/12/18 03:17:48;;;;;;;34.23;22.17;;;3.80;99.90;;;;;;5115013;27;20829;-74
2020/12/18 03:20:15;;;;;;;29.83;21.30;;;3.80;99.90;;;;;;5121625;27;20460;-74
2020/12/18 03:22:43;;;;;;;25.70;23.10;;;3.80;99.90;;;;;;5118115;27;20518;-74
2020/12/18 03:25:10;;;;;;;26.10;21.33;;;3.70;99.90;;;;;;5114008;27;20468;-74
2020/12/18 03:27:37;;;;;;;22.93;20.63;;;3.70;99.90;;;;;;5116002;27;20567;-74
2020/12/18 03:30:04;;;;;;;24.80;21.00;;;3.70;99.90;;;;;;5112241;27;20487;-74
2020/12/18 03:32:30;;;;;;;23.27;20.87;;;3.70;99.90;;;;;;5115221;27;20474;-74
2020/12/18 03:34:57;;;;;;;31.37;20.60;;;3.70;99.90;;;;;;5118862;27;20476;-74
2020/12/18 03:37:24;;;;;;;26.83;21.60;;;3.70;99.90;;;;;;5109347;27;20475;-74
2020/12/18 03:39:50;;;;;;;26.53;20.87;;;3.80;99.90;;;;;;5111033;27;21093;-74
2020/12/18 03:42:17;;;;;;;25.57;20.37;;;3.80;99.90;;;;;;5117915;27;20487;-74
2020/12/18 03:44:43;;;;;;;25.00;19.80;;;3.70;99.90;;;;;;5116890;27;20461;-74
2020/12/18 03:47:09;;;;;;;26.67;21.57;;;3.70;99.90;;;;;;5116292;27;20459;-74
2020/12/18 03:49:35;;;;;;;25.43;21.70;;;3.70;99.90;;;;;;5116192;27;20460;-74
2020/12/18 03:52:03;;;;;;;24.00;21.50;;;3.70;99.90;;;;;;5121078;27;20459;-75
2020/12/18 03:54:30;;;;;;;25.30;21.60;;;3.70;99.90;;;;;;5116024;27;20809;-74
2020/12/18 03:56:56;;;;;;;27.73;21.77;;;3.70;99.90;;;;;;5119317;27;20459;-75
2020/12/18 03:59:22;;;;;;;25.33;22.00;;;3.70;99.90;;;;;;5114753;27;20488;-74
2020/12/18 04:01:48;;;;;;;41.30;21.80;;;3.70;99.90;;;;;;5110346;27;20503;-74
2020/12/18 04:04:15;;;;;;;35.03;20.97;;;3.70;99.90;;;;;;5117294;27;20475;-74
2020/12/18 04:06:42;;;;;;;34.80;22.80;;;3.80;99.90;;;;;;5114305;27;20489;-74
2020/12/18 04:09:10;;;;;;;25.10;21.30;;;3.80;99.90;;;;;;5111713;27;20463;-75
2020/12/18 04:11:36;;;;;;;26.63;20.50;;;3.80;99.90;;;;;;5114124;27;21018;-74
2020/12/18 04:14:04;;;;;;;22.03;20.03;;;3.80;99.90;;;;;;5111168;27;20460;-75
2020/12/18 04:16:30;;;;;;;30.67;21.07;;;3.80;99.90;;;;;;5112640;27;20459;-74
2020/12/18 04:18:56;;;;;;;22.30;19.97;;;3.80;99.90;;;;;;5113127;27;20475;-74
2020/12/18 04:21:25;;;;;;;29.03;22.03;;;3.80;99.90;;;;;;5115314;27;20456;-74
2020/12/18 04:23:51;;;;;;;25.43;22.87;;;3.80;99.90;;;;;;5119757;27;21044;-74
2020/12/18 04:26:19;;;;;;;27.27;22.87;;;3.80;99.90;;;;;;5111111;27;22097;-74
2020/12/18 04:28:45;;;;;;;23.50;21.50;;;3.70;99.90;;;;;;5113844;27;20474;-75
2020/12/18 04:31:11;;;;;;;23.60;21.27;;;3.70;99.90;;;;;;5117896;27;20469;-75
2020/12/18 04:33:38;;;;;;;23.60;20.97;;;3.70;99.90;;;;;;5114219;27;20473;-74
2020/12/18 04:36:07;;;;;;;29.17;21.40;;;3.70;99.90;;;;;;5112354;27;20465;-74
2020/12/18 04:38:33;;;;;;;27.77;21.37;;;3.70;99.90;;;;;;5110142;27;20467;-74
2020/12/18 04:41:00;;;;;;;23.73;21.10;;;3.70;99.90;;;;;;5111778;27;20457;-74
2020/12/18 04:43:27;;;;;;;26.37;21.40;;;3.70;99.90;;;;;;5112110;27;20498;-75
2020/12/18 04:45:57;;;;;;;23.17;20.50;;;3.70;99.90;;;;;;5110628;27;20563;-74
2020/12/18 04:48:25;;;;;;;32.33;22.07;;;3.70;99.90;;;;;;5111133;27;20457;-74
2020/12/18 04:50:54;;;;;;;21.70;19.60;;;3.70;99.90;;;;;;5110911;27;20479;-74
2020/12/18 04:53:26;;;;;;;22.73;20.73;;;3.80;99.90;;;;;;5112446;27;20464;-74
2020/12/18 04:55:54;;;;;;;26.07;19.50;;;3.80;99.90;;;;;;5115583;27;20470;-74
2020/12/18 04:58:22;;;;;;;23.80;20.50;;;3.80;99.90;;;;;;5113874;27;20548;-74
2020/12/18 05:00:54;;;;;;;30.00;20.07;;;3.80;99.90;;;;;;5118773;27;20455;-74
2020/12/18 05:03:22;;;;;;;22.13;19.70;;;3.80;99.90;;;;;;5114328;27;21070;-74
2020/12/18 05:05:48;;;;;;;26.33;20.20;;;3.70;99.90;;;;;;5116729;27;20457;-74
2020/12/18 05:08:14;;;;;;;25.03;20.40;;;3.70;99.90;;;;;;5117707;27;20462;-75
2020/12/18 05:10:41;;;;;;;21.43;19.40;;;3.70;99.90;;;;;;5116470;27;20554;-74
2020/12/18 05:13:07;;;;;;;27.17;20.10;;;3.80;99.90;;;;;;5117966;27;20548;-74
2020/12/18 05:15:34;;;;;;;29.17;20.17;;;3.80;99.90;;;;;;5114527;27;20475;-74
2020/12/18 05:18:02;;;;;;;21.37;19.10;;;3.80;99.90;;;;;;5112162;27;20463;-74
2020/12/18 05:20:30;;;;;;;20.87;18.90;;;3.90;99.90;;;;;;5116206;27;20459;-74
2020/12/18 05:22:56;;;;;;;29.20;21.40;;;3.90;99.90;;;;;;5114701;27;20482;-74
2020/12/18 05:25:24;;;;;;;38.57;20.40;;;3.90;99.90;;;;;;5116819;27;20465;-74
2020/12/18 05:27:51;;;;;;;23.10;19.43;;;3.90;99.90;;;;;;5118642;27;20468;-74
2020/12/18 05:30:22;;;;;;;22.93;19.77;;;3.90;99.90;;;;;;5123531;27;20463;-74
2020/12/18 05:32:53;;;;;;;28.77;20.17;;;4.00;99.90;;;;;;5117462;27;20480;-74
2020/12/18 05:35:20;;;;;;;23.57;21.33;;;4.00;99.90;;;;;;5117915;27;20510;-74
2020/12/18 05:37:50;;;;;;;22.60;20.07;;;3.90;99.90;;;;;;5117824;27;20833;-74
2020/12/18 05:40:18;;;;;;;22.57;19.63;;;4.00;99.90;;;;;;5116706;27;20476;-74
2020/12/18 05:42:46;;;;;;;19.97;18.27;;;4.00;99.90;;;;;;5119014;28;20472;-74
2020/12/18 05:45:17;;;;;;;25.50;19.37;;;4.00;99.90;;;;;;5118675;28;20860;-74
2020/12/18 05:47:54;;;;;;;23.50;19.30;;;4.00;99.90;;;;;;5116614;28;20465;-74
2020/12/18 05:50:26;;;;;;;21.57;19.43;;;4.00;99.90;;;;;;5120525;28;20459;-74
2020/12/18 05:52:57;;;;;;;26.43;19.87;;;3.90;99.90;;;;;;5115711;28;20465;-74
2020/12/18 05:55:24;;;;;;;28.37;21.40;;;3.90;99.90;;;;;;5116592;28;20459;-74
2020/12/18 05:57:53;;;;;;;25.90;19.87;;;4.00;99.90;;;;;;5119347;28;20836;-74
2020/12/18 06:00:20;;;;;;;23.27;19.50;;;4.00;99.90;;;;;;5119252;28;20838;-74
2020/12/18 06:02:55;;;;;;;27.93;18.70;;;4.00;99.90;;;;;;5121355;28;20506;-74
2020/12/18 06:05:24;;;;;;;21.23;19.10;;;4.00;99.90;;;;;;5116264;28;20464;-74
2020/12/18 06:07:51;;;;;;;24.73;19.30;;;4.00;99.90;;;;;;5123131;28;20823;-74
2020/12/18 06:10:21;;;;;;;22.13;20.10;;;4.10;99.90;;;;;;5112267;28;20956;-74
2020/12/18 06:12:48;;;;;;;30.20;19.47;;;4.10;99.90;;;;;;5116934;28;20461;-74
2020/12/18 06:15:18;;;;;;;27.33;19.43;;;4.00;99.90;;;;;;5117355;28;20461;-74
2020/12/18 06:17:46;;;;;;;27.27;19.47;;;4.00;99.90;;;;;;5119169;28;20720;-74
2020/12/18 06:20:15;;;;;;;28.50;19.97;;;4.00;99.90;;;;;;5117687;28;20555;-74
2020/12/18 06:22:57;;;;;;;21.23;19.10;;;4.10;99.90;;;;;;5119101;28;20883;-74
2020/12/18 06:25:24;;;;;;;29.60;19.60;;;4.10;99.90;;;;;;5119587;28;20456;-74
2020/12/18 06:27:58;;;;;;;21.90;19.90;;;4.10;99.90;;;;;;5116990;28;20504;-74
2020/12/18 06:30:26;;;;;;;27.80;19.17;;;4.10;99.90;;;;;;5115597;28;20510;-74
2020/12/18 06:32:54;;;;;;;33.70;19.27;;;4.10;99.90;;;;;;5118239;28;20848;-74
2020/12/18 06:35:31;;;;;;;25.13;18.83;;;4.20;99.90;;;;;;5121544;28;20488;-74
2020/12/18 06:38:24;;;;;;;25.50;20.10;;;4.20;99.90;;;;;;5117677;28;20479;-74
2020/12/18 06:40:52;;;;;;;26.20;19.93;;;4.20;99.90;;;;;;5113962;28;20457;-74
2020/12/18 06:43:35;;;;;;;27.90;19.77;;;4.20;99.90;;;;;;5119588;28;20523;-74
2020/12/18 06:46:06;;;;;;;25.47;20.90;;;4.10;99.90;;;;;;5121431;28;20933;-74
2020/12/18 06:48:32;;;;;;;21.17;19.27;;;4.10;99.90;;;;;;5117787;27;20462;-74
2020/12/18 06:50:59;;;;;;;21.17;18.97;;;4.10;99.90;;;;;;5120830;27;20457;-74
2020/12/18 06:53:27;;;;;;;27.60;19.67;;;4.10;99.90;;;;;;5122379;27;20461;-74
2020/12/18 06:55:54;;;;;;;22.73;20.30;;;4.10;99.90;;;;;;5120502;27;20457;-74
2020/12/18 06:58:23;;;;;;;21.63;18.77;;;4.10;99.90;;;;;;5120000;27;20465;-74
2020/12/18 07:00:55;;;;;;;22.23;19.67;;;4.10;99.90;;;;;;5120519;27;20950;-74
2020/12/18 07:03:36;;;;;;;22.23;20.30;;;4.10;99.90;;;;;;5125405;27;20524;-74
2020/12/18 07:06:06;;;;;;;22.10;19.80;;;4.10;99.90;;;;;;5121121;27;20459;-74
2020/12/18 07:08:35;;;;;;;22.00;20.03;;;4.10;99.90;;;;;;5121621;27;20563;-74
2020/12/18 07:11:04;;;;;;;21.70;19.70;;;4.10;99.90;;;;;;5120612;27;20874;-74
2020/12/18 07:13:33;;;;;;;23.13;20.77;;;4.10;99.90;;;;;;5124355;27;20467;-74
2020/12/18 07:16:04;;;;;;;22.37;20.00;;;4.10;99.90;;;;;;5118650;27;20464;-75
2020/12/18 07:18:32;;;;;;;22.03;20.17;;;4.00;99.90;;;;;;5120570;27;20469;-74
2020/12/18 07:21:02;;;;;;;31.07;20.93;;;3.90;99.90;;;;;;5124974;27;20747;-74
2020/12/18 07:23:30;;;;;;;22.27;20.20;;;3.90;99.90;;;;;;5120383;27;20491;-75
2020/12/18 07:25:58;;;;;;;22.37;20.17;;;3.90;99.90;;;;;;5120247;27;20826;-74
2020/12/18 07:28:26;;;;;;;23.83;19.70;;;3.90;99.90;;;;;;5119445;27;20978;-74
2020/12/18 07:30:55;;;;;;;22.73;20.53;;;4.00;99.90;;;;;;5119462;27;20457;-74
2020/12/18 07:33:23;;;;;;;20.67;18.97;;;4.00;99.90;;;;;;5118137;27;21129;-74
2020/12/18 07:35:50;;;;;;;20.87;18.73;;;4.10;99.90;;;;;;5121338;27;20468;-74
2020/12/18 07:38:19;;;;;;;20.97;18.93;;;4.10;99.90;;;;;;5121525;27;20490;-74
2020/12/18 07:40:51;;;;;;;21.27;19.20;;;4.20;99.90;;;;;;5123913;27;20470;-74
2020/12/18 07:43:22;;;;;;;23.43;20.20;;;4.20;99.90;;;;;;5118703;27;21015;-74
2020/12/18 07:45:52;;;;;;;21.20;19.17;;;4.20;99.90;;;;;;5121149;27;20819;-75
2020/12/18 07:48:22;;;;;;;22.10;20.30;;;4.20;99.90;;;;;;5119352;27;20467;-74
2020/12/18 07:50:57;;;;;;;24.50;19.77;;;4.20;99.90;;;;;;5120412;27;20457;-74
2020/12/18 07:53:25;;;;;;;21.03;19.10;;;4.20;99.90;;;;;;5121434;27;20501;-74
2020/12/18 07:56:13;;;;;;;20.70;18.60;;;4.20;99.90;;;;;;5117540;27;20889;-75
2020/12/18 07:58:49;;;;;;;22.87;20.60;;;4.20;99.90;;;;;;5111276;27;20485;-74
2020/12/18 08:01:18;;;;;;;20.87;18.60;;;4.20;99.90;;;;;;5119920;27;20468;-74
2020/12/18 08:03:51;;;;;;;31.67;20.73;;;4.20;99.90;;;;;;5124306;27;21029;-74
2020/12/18 08:06:20;;;;;;;21.37;19.43;;;4.20;99.90;;;;;;5126422;27;20961;-75
2020/12/18 08:08:52;;;;;;;22.80;19.83;;;4.30;99.90;;;;;;5124872;27;20496;-74
2020/12/18 08:11:21;;;;;;;20.83;19.03;;;4.30;99.90;;;;;;5123898;27;20458;-73
2020/12/18 08:13:49;;;;;;;21.63;19.73;;;4.40;99.90;;;;;;5127386;27;20492;-73
2020/12/18 08:16:18;;;;;;;22.20;19.90;;;4.50;99.90;;;;;;5117840;27;20444;-73
2020/12/18 08:18:48;;;;;;;22.07;20.23;;;4.50;99.90;;;;;;5121460;27;20471;-73
2020/12/18 08:21:14;;;;;;;20.87;19.03;;;4.60;99.90;;;;;;5119983;27;20471;-73
2020/12/18 08:23:47;;;;;;;28.30;19.67;;;4.70;99.90;;;;;;5121232;27;20484;-74
2020/12/18 08:26:14;;;;;;;25.53;20.60;;;4.70;99.90;;;;;;5125960;27;20463;-73
2020/12/18 08:28:43;;;;;;;22.67;19.60;;;4.80;99.90;;;;;;5117841;27;20533;-74
2020/12/18 08:31:11;;;;;;;21.33;19.57;;;4.80;99.90;;;;;;5120542;27;20464;-74
2020/12/18 08:33:48;;;;;;;21.87;19.90;;;4.90;99.90;;;;;;5119653;27;20484;-74
2020/12/18 08:36:16;;;;;;;21.63;19.60;;;4.90;99.90;;;;;;5122621;27;20456;-74
2020/12/18 08:38:58;;;;;;;21.87;19.87;;;5.00;99.90;;;;;;5124513;27;20459;-74
2020/12/18 08:41:24;;;;;;;23.93;20.50;;;5.00;99.90;;;;;;5118838;27;20456;-74
2020/12/18 08:44:04;;;;;;;21.90;20.10;;;5.00;99.90;;;;;;5117259;27;21104;-74
2020/12/18 08:46:34;;;;;;;22.27;20.10;;;5.10;99.90;;;;;;5129321;27;20461;-74
2020/12/18 08:49:01;;;;;;;23.63;20.90;;;5.20;99.90;;;;;;5119420;27;20864;-74
2020/12/18 08:51:28;;;;;;;27.20;21.87;;;5.20;99.90;;;;;;5123145;27;20460;-74
2020/12/18 08:53:55;;;;;;;27.33;20.60;;;5.20;99.90;;;;;;5121400;27;20865;-77
2020/12/18 08:56:21;;;;;;;24.33;19.97;;;5.30;99.90;;;;;;5122855;27;21017;-78
2020/12/18 08:58:47;;;;;;;23.90;21.53;;;5.30;99.90;;;;;;5118043;27;20559;-74
2020/12/18 09:01:23;;;;;;;23.27;20.83;;;5.40;99.90;;;;;;5116594;27;20873;-77
2020/12/18 09:03:50;;;;;;;25.37;22.00;;;5.50;99.90;;;;;;5114351;27;20855;-75
2020/12/18 09:06:18;;;;;;;24.30;22.47;;;5.50;99.90;;;;;;5114162;27;20967;-78
2020/12/18 09:08:44;;;;;;;32.03;24.20;;;5.50;99.90;;;;;;5113821;27;20950;-75
2020/12/18 09:11:11;;;;;;;30.50;22.30;;;5.50;99.90;;;;;;5115719;27;20468;-77
2020/12/18 09:13:38;;;;;;;24.10;21.97;;;5.50;99.90;;;;;;5113331;27;20576;-75
2020/12/18 09:16:06;;;;;;;24.60;22.03;;;5.60;99.90;;;;;;5119394;27;20529;-74
2020/12/18 09:18:34;;;;;;;33.40;25.37;;;5.60;99.90;;;;;;5112304;27;20465;-76
2020/12/18 09:21:13;;;;;;;27.70;22.90;;;5.60;99.90;;;;;;5116640;27;20594;-76
2020/12/18 09:23:40;;;;;;;26.33;23.70;;;5.60;99.90;;;;;;5112858;27;21271;-74
2020/12/18 09:26:07;;;;;;;26.60;23.00;;;5.60;99.90;;;;;;5114103;27;20494;-77
2020/12/18 09:28:38;;;;;;;26.10;23.60;;;5.60;99.90;;;;;;5110788;27;20464;-74
2020/12/18 09:31:07;;;;;;;25.80;23.33;;;5.60;99.90;;;;;;5112992;27;20453;-74
2020/12/18 09:33:35;;;;;;;25.73;23.40;;;5.60;99.90;;;;;;5118003;27;20473;-74
2020/12/18 09:36:09;;;;;;;29.27;24.80;;;5.60;99.90;;;;;;5119694;27;20456;-74
2020/12/18 09:38:38;;;;;;;26.33;23.83;;;5.60;99.90;;;;;;5123085;28;20461;-74
2020/12/18 09:41:07;;;;;;;27.57;25.13;;;5.60;99.90;;;;;;5118022;27;20465;-74
2020/12/18 09:43:34;;;;;;;27.03;24.00;;;5.60;99.90;;;;;;5123736;27;20492;-77
2020/12/18 09:46:00;;;;;;;27.60;24.90;;;5.70;99.90;;;;;;5118402;28;20551;-74
2020/12/18 09:48:28;;;;;;;27.90;25.03;;;5.80;99.90;;;;;;5116149;28;20934;-73
2020/12/18 09:50:56;;;;;;;32.70;25.70;;;5.80;99.90;;;;;;5115473;28;20543;-73
2020/12/18 09:53:23;;;;;;;27.57;24.70;;;5.80;99.90;;;;;;5117952;28;20452;-73
2020/12/18 09:55:52;;;;;;;28.83;26.20;;;5.90;99.90;;;;;;5116275;28;20460;-74
2020/12/18 09:58:19;;;;;;;27.53;25.10;;;5.90;99.90;;;;;;5121950;28;20484;-73
2020/12/18 10:00:45;;;;;;;27.50;25.10;;;6.00;99.90;;;;;;5119960;28;20466;-73
2020/12/18 10:03:12;;;;;;;27.07;24.57;;;5.90;99.90;;;;;;5121187;28;20922;-73
2020/12/18 10:05:38;;;;;;;29.53;25.33;;;6.00;99.90;;;;;;5121763;28;20457;-74
2020/12/18 10:08:05;;;;;;;26.37;24.13;;;6.10;99.90;;;;;;5124710;28;20951;-74
2020/12/18 10:10:31;;;;;;;27.33;25.03;;;6.10;99.90;;;;;;5125234;28;20452;-74
2020/12/18 10:12:59;;;;;;;29.33;26.30;;;6.20;99.90;;;;;;5120087;28;20460;-74
2020/12/18 10:15:27;;;;;;;27.10;24.27;;;6.20;99.90;;;;;;5116670;28;20452;-73
2020/12/18 10:17:54;;;;;;;28.80;26.00;;;6.30;99.90;;;;;;5124382;28;20449;-74
2020/12/18 10:20:20;;;;;;;35.23;26.00;;;6.40;99.90;;;;;;5125896;28;20452;-77
2020/12/18 10:22:47;;;;;;;32.67;25.23;;;6.50;99.90;;;;;;5118761;28;20476;-75
2020/12/18 10:25:14;;;;;;;26.80;24.10;;;6.50;99.90;;;;;;5123872;27;20460;-74
2020/12/18 10:27:40;;;;;;;27.30;24.80;;;6.60;99.90;;;;;;5123750;27;20496;-74
2020/12/18 10:30:09;;;;;;;29.93;25.57;;;6.70;99.90;;;;;;5123903;27;20459;-75
2020/12/18 10:32:36;;;;;;;29.13;26.33;;;6.70;99.90;;;;;;5127766;27;20477;-77
2020/12/18 10:35:04;;;;;;;29.53;25.70;;;6.80;99.90;;;;;;5122573;27;20494;-74
2020/12/18 10:37:30;;;;;;;27.63;24.80;;;6.90;99.90;;;;;;5125241;27;20557;-75
2020/12/18 10:39:57;;;;;;;34.80;24.80;;;6.90;99.90;;;;;;5124558;27;20453;-74
2020/12/18 10:42:24;;;;;;;27.63;24.80;;;7.00;99.90;;;;;;5125525;27;20482;-74
2020/12/18 10:44:50;;;;;;;34.03;25.63;;;7.00;99.90;;;;;;5120023;27;20930;-74
2020/12/18 10:47:18;;;;;;;27.50;24.83;;;7.10;99.90;;;;;;5128435;27;20472;-74
2020/12/18 10:49:44;;;;;;;33.60;25.20;;;7.20;99.90;;;;;;5122163;27;21003;-75
2020/12/18 10:52:11;;;;;;;31.67;24.73;;;7.20;99.90;;;;;;5124373;27;20832;-74
2020/12/18 10:54:37;;;;;;;35.43;25.87;;;7.20;99.90;;;;;;5124540;27;20467;-74
2020/12/18 10:57:04;;;;;;;32.77;26.43;;;7.30;99.90;;;;;;5120620;27;20463;-76
2020/12/18 10:59:31;;;;;;;27.97;25.23;;;7.40;99.90;;;;;;5128888;27;20513;-76
2020/12/18 11:01:59;;;;;;;29.30;24.30;;;7.50;99.90;;;;;;5123331;27;20461;-74
2020/12/18 11:04:26;;;;;;;27.70;25.17;;;7.50;99.90;;;;;;5120156;27;20545;-74
2020/12/18 11:06:53;;;;;;;30.63;26.70;;;7.60;99.90;;;;;;5120691;27;20870;-77
2020/12/18 11:09:20;;;;;;;38.67;26.30;;;7.70;99.90;;;;;;5124495;27;20475;-75
2020/12/18 11:11:52;;;;;;;36.80;25.77;;;7.70;99.90;;;;;;5127623;27;20463;-74
2020/12/18 11:14:19;;;;;;;28.93;25.30;;;7.80;99.90;;;;;;5122957;27;20507;-77
2020/12/18 11:16:45;;;;;;;26.00;23.50;;;8.00;99.90;;;;;;5123933;27;20862;-77
2020/12/18 11:19:12;;;;;;;29.57;24.87;;;8.00;99.90;;;;;;5120763;27;20512;-75
2020/12/18 11:21:43;;;;;;;28.37;25.43;;;8.00;99.90;;;;;;5124691;27;20541;-76
2020/12/18 11:24:11;;;;;;;27.53;24.63;;;8.10;99.90;;;;;;5122334;27;20576;-76
2020/12/18 11:26:37;;;;;;;27.20;24.40;;;8.10;99.90;;;;;;5119805;27;20455;-77
2020/12/18 11:29:04;;;;;;;26.23;23.37;;;8.20;99.90;;;;;;5121668;27;20514;-75
2020/12/18 11:31:33;;;;;;;35.30;24.50;;;8.20;99.90;;;;;;5121318;27;20461;-74
2020/12/18 11:33:59;;;;;;;30.93;24.03;;;8.20;99.90;;;;;;5117810;27;20864;-75
2020/12/18 11:36:25;;;;;;;28.47;25.87;;;8.30;99.90;;;;;;5118059;27;21290;-75
2020/12/18 11:38:52;;;;;;;29.70;24.80;;;8.50;99.90;;;;;;5114802;27;20460;-75
2020/12/18 11:41:20;;;;;;;28.63;23.00;;;9.20;99.90;;;;;;5121930;27;20458;-75
2020/12/18 11:43:47;;;;;;;25.43;22.73;;;9.90;99.90;;;;;;5115107;27;20495;-76
2020/12/18 11:46:13;;;;;;;22.53;20.43;;;10.40;99.90;;;;;;5117153;27;20465;-78
2020/12/18 11:48:40;;;;;;;22.97;20.47;;;10.90;99.90;;;;;;5124402;27;20463;-74
2020/12/18 11:51:07;;;;;;;19.70;18.17;;;11.30;99.90;;;;;;5119470;27;20503;-78
2020/12/18 11:53:34;;;;;;;20.93;18.97;;;11.40;99.90;;;;;;5117731;27;20465;-77
2020/12/18 11:56:03;;;;;;;22.93;17.93;;;11.60;99.90;;;;;;5117784;27;20955;-77
2020/12/18 11:58:30;;;;;;;18.87;17.33;;;11.80;99.90;;;;;;5118769;27;20465;-75
2020/12/18 12:00:56;;;;;;;17.93;16.33;;;12.10;99.90;;;;;;5119293;27;20842;-75
2020/12/18 12:03:24;;;;;;;17.77;16.30;;;12.10;99.90;;;;;;5121193;27;21059;-75
2020/12/18 12:05:52;;;;;;;21.43;15.50;;;12.30;99.90;;;;;;5116648;27;20462;-77
2020/12/18 12:08:19;;;;;;;17.53;16.13;;;12.70;99.90;;;;;;5122396;27;20465;-75
2020/12/18 12:10:45;;;;;;;16.30;14.97;;;13.00;99.90;;;;;;5125240;27;20529;-78
2020/12/18 12:13:13;;;;;;;16.57;15.20;;;13.10;99.90;;;;;;5122382;27;20456;-75
2020/12/18 12:15:40;;;;;;;20.47;15.57;;;13.00;99.90;;;;;;5120539;27;20460;-74
2020/12/18 12:18:06;;;;;;;15.63;14.30;;;13.40;99.90;;;;;;5121557;27;20463;-74
2020/12/18 12:20:33;;;;;;;16.20;15.00;;;13.50;99.90;;;;;;5123657;27;20468;-76
2020/12/18 12:22:59;;;;;;;15.80;14.80;;;13.50;99.90;;;;;;5121533;27;20487;-77
2020/12/18 12:25:25;;;;;;;17.03;15.50;;;13.40;99.90;;;;;;5116342;27;20468;-77
2020/12/18 12:27:54;;;;;;;17.17;15.80;;;13.50;99.90;;;;;;5117837;27;20465;-76
2020/12/18 12:30:21;;;;;;;17.00;15.70;;;13.30;99.90;;;;;;5121614;27;20966;-76
2020/12/18 12:32:54;;;;;;;16.60;14.90;;;13.20;99.90;;;;;;5117166;27;21007;-75
2020/12/18 12:35:21;;;;;;;16.10;15.10;;;13.40;99.90;;;;;;5115866;27;20460;-74
2020/12/18 12:37:48;;;;;;;16.70;15.40;;;13.30;99.90;;;;;;5121462;27;20457;-75
2020/12/18 12:40:14;;;;;;;17.07;15.37;;;13.30;99.90;;;;;;5123699;27;20463;-76